createdAt,value
2022-09-14T00:01:47.218Z,99.90
2022-09-14T00:04:19.012Z,99.90
2022-09-14T00:06:48.288Z,99.90
2022-09-14T00:09:22.388Z,99.90
2022-09-14T00:11:52.871Z,99.90
2022-09-14T00:14:21.563Z,99.90
2022-09-14T00:16:52.254Z,99.90
2022-09-14T00:19:23.034Z,99.90
2022-09-14T00:21:55.273Z,99.90
2022-09-14T00:24:25.212Z,99.90
2022-09-14T00:26:54.139Z,99.90
2022-09-14T00:29:22.954Z,99.90
2022-09-14T00:31:52.915Z,99.90
2022-09-14T00:34:21.696Z,99.90
2022-09-14T00:36:51.991Z,99.90
2022-09-14T00:39:22.207Z,99.90
2022-09-14T00:41:51.592Z,99.90
2022-09-14T00:44:57.524Z,99.90
2022-09-14T00:47:27.961Z,99.90
2022-09-14T00:49:56.443Z,99.90
2022-09-14T00:52:29.115Z,99.90
2022-09-14T00:55:00.266Z,99.80
2022-09-14T00:57:32.308Z,99.80
2022-09-14T01:00:01.881Z,99.70
2022-09-14T01:02:31.863Z,99.80
2022-09-14T01:05:00.545Z,99.60
2022-09-14T01:08:00.140Z,99.60
2022-09-14T01:10:41.140Z,99.40
2022-09-14T01:13:23.786Z,99.80
2022-09-14T01:16:03.177Z,99.30
2022-09-14T01:18:38.321Z,98.90
2022-09-14T01:21:11.790Z,99.20
2022-09-14T01:23:50.067Z,99.40
2022-09-14T01:26:55.386Z,99.40
2022-09-14T01:29:31.403Z,99.40
2022-09-14T01:32:05.399Z,99.60
2022-09-14T01:34:38.777Z,99.70
2022-09-14T01:37:13.352Z,99.80
2022-09-14T01:39:45.511Z,99.30
2022-09-14T01:42:14.875Z,99.10
2022-09-14T01:44:49.370Z,99.40
2022-09-14T01:47:23.378Z,99.60
2022-09-14T01:49:57.437Z,99.30
2022-09-14T01:52:31.804Z,99.00
2022-09-14T01:55:03.212Z,98.80
2022-09-14T01:57:37.106Z,98.60
2022-09-14T02:00:11.171Z,98.60
2022-09-14T02:02:44.617Z,98.40
2022-09-14T02:05:19.655Z,98.30
2022-09-14T02:07:48.568Z,98.30
2022-09-14T02:10:18.485Z,98.40
2022-09-14T02:12:47.742Z,98.40
2022-09-14T02:15:18.883Z,98.70
2022-09-14T02:17:48.675Z,98.20
2022-09-14T02:20:23.023Z,98.30
2022-09-14T02:22:52.582Z,98.50
2022-09-14T02:25:22.273Z,98.60
2022-09-14T02:27:51.763Z,98.70
2022-09-14T02:30:21.869Z,98.80
2022-09-14T02:33:03.895Z,98.50
2022-09-14T02:35:39.449Z,98.30
2022-09-14T02:38:13.966Z,98.40
2022-09-14T02:40:47.410Z,98.50
2022-09-14T02:43:29.418Z,98.70
2022-09-14T02:46:07.442Z,98.90
2022-09-14T02:48:43.283Z,99.20
2022-09-14T02:51:18.317Z,98.90
2022-09-14T02:53:52.317Z,98.50
2022-09-14T02:56:22.204Z,98.30
2022-09-14T02:58:50.702Z,98.60
2022-09-14T03:01:22.608Z,98.30
2022-09-14T03:03:51.325Z,97.90
2022-09-14T03:06:19.894Z,98.50
2022-09-14T03:08:48.979Z,98.10
2022-09-14T03:11:18.571Z,97.90
2022-09-14T03:13:47.265Z,97.90
2022-09-14T03:16:18.273Z,98.70
2022-09-14T03:18:49.189Z,98.50
2022-09-14T03:21:18.637Z,98.70
2022-09-14T03:23:48.545Z,98.10
2022-09-14T03:26:19.041Z,98.30
2022-09-14T03:28:52.165Z,98.70
2022-09-14T03:31:20.975Z,98.90
2022-09-14T03:33:54.286Z,98.50
2022-09-14T03:36:24.441Z,98.50
2022-09-14T03:38:55.163Z,97.60
2022-09-14T03:41:25.401Z,98.90
2022-09-14T03:43:54.204Z,98.30
2022-09-14T03:46:24.825Z,98.00
2022-09-14T03:48:55.968Z,98.20
2022-09-14T03:51:25.613Z,97.80
2022-09-14T03:53:54.585Z,97.70
2022-09-14T03:56:23.981Z,98.10
2022-09-14T03:58:53.201Z,97.60
2022-09-14T04:01:23.270Z,97.10
2022-09-14T04:03:52.355Z,97.60
2022-09-14T04:06:22.596Z,97.50
2022-09-14T04:08:51.105Z,97.50
2022-09-14T04:11:21.611Z,97.60
2022-09-14T04:13:50.873Z,97.50
2022-09-14T04:16:21.150Z,97.80
2022-09-14T04:18:50.898Z,98.00
2022-09-14T04:21:22.950Z,98.00
2022-09-14T04:26:44.245Z,97.90
2022-09-14T04:29:14.649Z,97.50
2022-09-14T04:31:43.524Z,97.90
2022-09-14T04:34:13.864Z,98.40
2022-09-14T04:36:43.867Z,98.50
2022-09-14T04:39:14.164Z,98.50
2022-09-14T04:41:42.730Z,98.30
2022-09-14T04:44:11.367Z,98.20
2022-09-14T04:46:46.074Z,98.40
2022-09-14T04:49:15.725Z,97.70
2022-09-14T04:51:45.956Z,97.00
2022-09-14T04:54:16.804Z,96.80
2022-09-14T04:56:45.777Z,96.50
2022-09-14T04:59:15.393Z,96.70
2022-09-14T05:01:46.143Z,97.30
2022-09-14T05:04:15.701Z,96.90
2022-09-14T05:06:46.130Z,97.10
2022-09-14T05:09:16.558Z,97.40
2022-09-14T05:11:46.090Z,97.30
2022-09-14T05:14:15.452Z,97.70
2022-09-14T05:16:45.439Z,97.00
2022-09-14T05:19:17.035Z,97.90
2022-09-14T05:21:47.795Z,97.80
2022-09-14T05:24:17.565Z,97.20
2022-09-14T05:26:47.018Z,96.90
2022-09-14T05:29:19.232Z,96.50
2022-09-14T05:31:47.987Z,96.90
2022-09-14T05:34:17.011Z,96.30
2022-09-14T05:36:48.461Z,96.40
2022-09-14T05:39:21.042Z,96.80
2022-09-14T05:41:51.787Z,96.30
2022-09-14T05:44:20.389Z,95.90
2022-09-14T05:46:49.161Z,95.90
2022-09-14T05:49:17.725Z,96.20
2022-09-14T05:51:47.688Z,95.40
2022-09-14T05:54:16.675Z,95.10
2022-09-14T05:56:45.242Z,95.40
2022-09-14T05:59:13.782Z,95.60
2022-09-14T06:01:42.439Z,95.70
2022-09-14T06:04:13.009Z,95.50
2022-09-14T06:06:46.918Z,95.70
2022-09-14T06:09:29.976Z,95.60
2022-09-14T06:12:01.836Z,95.00
2022-09-14T06:14:30.625Z,95.90
2022-09-14T06:16:59.314Z,95.60
2022-09-14T06:19:27.905Z,94.90
2022-09-14T06:21:56.441Z,94.10
2022-09-14T06:24:28.109Z,94.10
2022-09-14T06:26:58.598Z,94.50
2022-09-14T06:29:28.600Z,94.80
2022-09-14T06:31:57.670Z,95.10
2022-09-14T06:34:26.354Z,95.10
2022-09-14T06:36:54.951Z,95.30
2022-09-14T06:39:24.920Z,95.80
2022-09-14T06:41:54.819Z,95.10
2022-09-14T06:44:23.454Z,95.40
2022-09-14T06:46:51.929Z,95.30
2022-09-14T06:49:23.132Z,94.60
2022-09-14T06:51:54.750Z,94.40
2022-09-14T06:54:24.589Z,94.00
2022-09-14T06:56:54.938Z,94.10
2022-09-14T06:59:23.493Z,94.00
2022-09-14T07:01:52.107Z,94.20
2022-09-14T07:04:21.700Z,93.00
2022-09-14T07:06:51.537Z,93.40
2022-09-14T07:09:21.028Z,93.30
2022-09-14T07:11:50.007Z,93.20
2022-09-14T07:14:21.177Z,92.00
2022-09-14T07:16:49.689Z,92.10
2022-09-14T07:19:18.295Z,92.00
2022-09-14T07:21:48.196Z,92.10
2022-09-14T07:24:16.690Z,91.90
2022-09-14T07:26:45.533Z,91.90
2022-09-14T07:29:16.456Z,91.80
2022-09-14T07:31:48.182Z,92.50
2022-09-14T07:34:17.488Z,92.20
2022-09-14T07:36:46.221Z,92.10
2022-09-14T07:39:17.323Z,91.20
2022-09-14T07:41:45.967Z,90.90
2022-09-14T07:44:18.013Z,90.60
2022-09-14T07:46:48.411Z,90.30
2022-09-14T07:49:18.513Z,90.40
2022-09-14T07:51:48.761Z,90.00
2022-09-14T07:54:19.401Z,89.30
2022-09-14T07:56:49.403Z,89.20
2022-09-14T07:59:38.668Z,87.50
2022-09-14T08:02:09.560Z,87.70
2022-09-14T08:04:39.391Z,89.00
2022-09-14T08:07:09.236Z,89.20
2022-09-14T08:09:39.040Z,88.50
2022-09-14T08:12:07.819Z,88.50
2022-09-14T08:14:37.053Z,87.50
2022-09-14T08:17:05.495Z,88.00
2022-09-14T08:19:35.647Z,87.50
2022-09-14T08:22:04.320Z,87.00
2022-09-14T08:24:33.601Z,86.20
2022-09-14T08:27:02.186Z,86.60
2022-09-14T08:29:30.582Z,84.20
2022-09-14T08:31:59.197Z,84.80
2022-09-14T08:34:27.743Z,84.00
2022-09-14T08:36:59.898Z,84.90
2022-09-14T08:39:28.588Z,84.30
2022-09-14T08:42:02.010Z,84.50
2022-09-14T08:44:34.693Z,83.90
2022-09-14T08:47:05.626Z,83.60
2022-09-14T08:49:47.153Z,84.20
2022-09-14T08:52:25.623Z,83.60
2022-09-14T08:55:02.739Z,83.30
2022-09-14T08:57:39.828Z,83.30
2022-09-14T09:00:13.357Z,81.60
2022-09-14T09:03:03.111Z,81.40
2022-09-14T09:05:40.808Z,80.60
2022-09-14T09:08:19.602Z,80.20
2022-09-14T09:10:50.310Z,79.30
2022-09-14T09:13:21.848Z,79.10
2022-09-14T09:15:52.908Z,81.60
2022-09-14T09:18:37.415Z,79.90
2022-09-14T09:21:11.891Z,80.00
2022-09-14T09:23:43.775Z,80.00
2022-09-14T09:26:18.113Z,79.20
2022-09-14T09:28:49.715Z,76.40
2022-09-14T09:31:20.391Z,76.50
2022-09-14T09:34:21.655Z,76.70
2022-09-14T09:36:51.170Z,75.70
2022-09-14T09:39:21.211Z,74.90
2022-09-14T09:41:56.547Z,75.20
2022-09-14T09:44:25.207Z,75.60
2022-09-14T09:46:57.142Z,75.20
2022-09-14T09:49:31.121Z,74.60
2022-09-14T09:52:08.914Z,73.90
2022-09-14T09:54:41.276Z,74.50
2022-09-14T09:57:23.171Z,75.20
2022-09-14T09:59:52.675Z,74.90
2022-09-14T10:02:28.704Z,72.30
2022-09-14T10:05:03.131Z,71.90
2022-09-14T10:07:33.531Z,71.00
2022-09-14T10:10:07.446Z,71.30
2022-09-14T10:12:37.613Z,72.30
2022-09-14T10:15:17.297Z,72.00
2022-09-14T10:18:08.221Z,70.50
2022-09-14T10:20:38.458Z,71.80
2022-09-14T10:23:33.385Z,70.00
2022-09-14T10:26:20.435Z,69.30
2022-09-14T10:28:51.363Z,70.20
2022-09-14T10:31:27.276Z,70.50
2022-09-14T10:33:57.716Z,70.30
2022-09-14T10:36:30.635Z,71.00
2022-09-14T10:39:04.168Z,72.10
2022-09-14T10:41:40.178Z,71.30
2022-09-14T10:44:31.349Z,71.50
2022-09-14T10:47:17.232Z,70.70
2022-09-14T10:50:02.060Z,70.10
2022-09-14T10:52:42.799Z,68.40
2022-09-14T10:55:37.179Z,69.70
2022-09-14T10:58:24.663Z,70.80
2022-09-14T11:01:07.349Z,70.30
2022-09-14T11:03:50.073Z,71.80
2022-09-14T11:06:32.098Z,72.50
2022-09-14T11:09:05.094Z,72.30
2022-09-14T11:11:44.931Z,71.50
2022-09-14T11:14:35.101Z,72.20
2022-09-14T11:17:35.040Z,73.90
2022-09-14T11:20:17.921Z,73.80
2022-09-14T11:22:51.625Z,75.00
2022-09-14T11:25:23.133Z,74.40
2022-09-14T11:27:56.133Z,74.10
2022-09-14T11:30:34.274Z,75.30
2022-09-14T11:33:09.047Z,73.00
2022-09-14T11:35:45.299Z,73.20
2022-09-14T11:38:20.223Z,72.20
2022-09-14T11:40:53.074Z,72.00
2022-09-14T11:43:26.014Z,71.70
2022-09-14T11:46:13.957Z,70.80
2022-09-14T11:48:51.143Z,71.40
2022-09-14T11:51:24.995Z,70.60
2022-09-14T11:53:53.621Z,70.10
2022-09-14T11:56:26.970Z,70.10
2022-09-14T11:58:57.889Z,70.70
2022-09-14T12:01:32.580Z,71.20
2022-09-14T12:04:13.484Z,71.00
2022-09-14T12:06:51.178Z,71.30
2022-09-14T12:09:54.959Z,72.00
2022-09-14T12:12:44.989Z,71.50
2022-09-14T12:15:32.501Z,71.90
2022-09-14T12:21:04.137Z,72.60
2022-09-14T12:23:57.980Z,75.60
2022-09-14T12:26:31.584Z,77.80
2022-09-14T12:29:07.737Z,78.90
2022-09-14T12:31:55.582Z,79.60
2022-09-14T12:34:25.351Z,82.30
2022-09-14T12:37:29.669Z,85.00
2022-09-14T12:40:38.110Z,85.70
2022-09-14T12:43:48.825Z,87.00
2022-09-14T12:46:34.061Z,87.30
2022-09-14T12:49:04.073Z,87.60
2022-09-14T12:51:43.448Z,87.90
2022-09-14T12:54:29.259Z,87.40
2022-09-14T12:57:12.409Z,86.90
2022-09-14T12:59:54.133Z,86.80
2022-09-14T13:03:01.731Z,86.80
2022-09-14T13:05:33.917Z,86.60
2022-09-14T13:08:03.213Z,85.80
2022-09-14T13:10:45.563Z,86.20
2022-09-14T13:13:18.710Z,85.80
2022-09-14T13:15:53.580Z,85.50
2022-09-14T13:18:32.201Z,83.70
2022-09-14T13:21:03.466Z,83.80
2022-09-14T13:23:37.354Z,84.20
2022-09-14T13:26:13.453Z,83.70
2022-09-14T13:28:44.777Z,81.60
2022-09-14T13:31:18.179Z,82.20
2022-09-14T13:33:52.234Z,83.60
2022-09-14T13:36:23.363Z,83.60
2022-09-14T13:38:52.829Z,84.20
2022-09-14T13:41:24.422Z,84.30
2022-09-14T13:43:55.537Z,84.30
2022-09-14T13:46:25.986Z,82.70
2022-09-14T13:48:55.185Z,79.90
2022-09-14T13:51:26.672Z,78.40
2022-09-14T13:53:56.747Z,76.80
2022-09-14T13:56:31.334Z,74.50
2022-09-14T13:59:18.619Z,74.60
2022-09-14T14:01:55.611Z,75.00
2022-09-14T14:04:35.494Z,72.60
2022-09-14T14:07:17.596Z,72.30
2022-09-14T14:09:50.848Z,69.70
2022-09-14T14:12:26.513Z,68.30
2022-09-14T14:14:59.804Z,67.70
2022-09-14T14:17:38.015Z,67.10
2022-09-14T14:20:29.928Z,64.90
2022-09-14T14:23:00.934Z,63.70
2022-09-14T14:25:33.313Z,64.20
2022-09-14T14:28:05.355Z,62.50
2022-09-14T14:30:40.403Z,63.10
2022-09-14T14:33:13.644Z,65.20
2022-09-14T14:35:42.747Z,67.80
2022-09-14T14:38:17.983Z,69.40
2022-09-14T14:40:49.041Z,70.90
2022-09-14T14:43:21.445Z,72.00
2022-09-14T14:45:51.172Z,72.20
2022-09-14T14:48:19.762Z,72.20
2022-09-14T14:50:48.639Z,73.60
2022-09-14T14:53:17.175Z,72.50
2022-09-14T14:55:45.618Z,72.90
2022-09-14T14:58:19.412Z,74.40
2022-09-14T15:00:48.540Z,75.20
2022-09-14T15:03:19.126Z,74.80
2022-09-14T15:05:49.225Z,74.50
2022-09-14T15:08:20.168Z,73.40
2022-09-14T15:10:49.796Z,73.00
2022-09-14T15:13:19.710Z,73.20
2022-09-14T15:15:48.344Z,74.40
2022-09-14T15:18:16.807Z,75.00
2022-09-14T15:20:45.325Z,75.50
2022-09-14T15:23:15.063Z,77.60
2022-09-14T15:25:43.710Z,75.60
2022-09-14T15:28:12.186Z,76.00
2022-09-14T15:30:42.131Z,75.10
2022-09-14T15:33:10.579Z,75.70
2022-09-14T15:35:40.262Z,76.20
2022-09-14T15:38:08.811Z,75.40
2022-09-14T15:40:37.788Z,76.90
2022-09-14T15:43:06.441Z,76.80
2022-09-14T15:45:35.251Z,77.00
2022-09-14T15:48:05.489Z,76.90
2022-09-14T15:50:34.207Z,77.10
2022-09-14T15:53:02.991Z,77.50
2022-09-14T15:55:31.573Z,77.50
2022-09-14T15:58:00.104Z,78.10
2022-09-14T16:00:28.672Z,76.10
2022-09-14T16:02:57.103Z,76.50
2022-09-14T16:05:27.062Z,76.60
2022-09-14T16:07:55.862Z,76.50
2022-09-14T16:10:25.821Z,77.10
2022-09-14T16:12:55.449Z,77.20
2022-09-14T16:15:24.352Z,78.20
2022-09-14T16:17:53.587Z,79.50
2022-09-14T16:20:22.590Z,80.10
2022-09-14T16:22:53.058Z,81.30
2022-09-14T16:25:21.602Z,82.50
2022-09-14T16:27:50.160Z,83.80
2022-09-14T16:30:18.785Z,85.10
2022-09-14T16:32:47.418Z,86.30
2022-09-14T16:35:16.059Z,86.60
2022-09-14T16:37:44.584Z,86.50
2022-09-14T16:40:14.636Z,87.10
2022-09-14T16:42:43.258Z,87.50
2022-09-14T16:45:11.881Z,87.80
2022-09-14T16:47:40.554Z,88.50
2022-09-14T16:50:09.726Z,88.90
2022-09-14T16:52:38.164Z,89.40
2022-09-14T16:55:07.811Z,89.90
2022-09-14T16:57:37.680Z,90.00
2022-09-14T17:00:07.027Z,90.10
2022-09-14T17:02:35.621Z,90.20
2022-09-14T17:05:04.204Z,90.30
2022-09-14T17:07:32.669Z,90.50
2022-09-14T17:10:01.239Z,91.00
2022-09-14T17:12:29.758Z,92.10
2022-09-14T17:14:59.699Z,93.00
2022-09-14T17:17:31.149Z,92.90
2022-09-14T17:19:59.846Z,92.00
2022-09-14T17:22:28.354Z,93.40
2022-09-14T17:24:56.927Z,94.10
2022-09-14T17:27:25.477Z,93.80
2022-09-14T17:29:54.160Z,94.00
2022-09-14T17:32:24.035Z,94.20
2022-09-14T17:34:54.793Z,94.50
2022-09-14T17:37:23.808Z,94.70
2022-09-14T17:39:52.642Z,94.60
2022-09-14T17:42:21.216Z,95.00
2022-09-14T17:44:49.726Z,95.00
2022-09-14T17:47:18.270Z,94.90
2022-09-14T17:49:48.365Z,95.20
2022-09-14T17:52:16.896Z,96.20
2022-09-14T17:54:45.466Z,97.20
2022-09-14T17:57:13.998Z,97.80
2022-09-14T17:59:42.911Z,98.00
2022-09-14T18:02:11.683Z,98.50
2022-09-14T18:04:40.243Z,98.10
2022-09-14T18:07:10.796Z,98.30
2022-09-14T18:09:40.438Z,98.60
2022-09-14T18:12:10.518Z,99.20
2022-09-14T18:14:39.355Z,99.60
2022-09-14T18:17:07.849Z,99.60
2022-09-14T18:19:36.329Z,98.60
2022-09-14T18:22:05.414Z,99.10
2022-09-14T18:24:35.577Z,99.90
2022-09-14T18:27:04.063Z,99.90
2022-09-14T18:29:33.811Z,99.90
2022-09-14T18:32:02.436Z,99.60
2022-09-14T18:34:30.974Z,99.60
2022-09-14T18:36:59.454Z,99.50
2022-09-14T18:39:27.996Z,99.80
2022-09-14T18:41:57.840Z,99.60
2022-09-14T18:44:26.321Z,99.90
2022-09-14T18:46:55.012Z,99.90
2022-09-14T18:49:23.506Z,99.90
2022-09-14T18:51:52.184Z,99.90
2022-09-14T18:54:24.239Z,99.90
2022-09-14T18:56:57.279Z,99.90
2022-09-14T18:59:25.899Z,99.90
2022-09-14T19:01:54.428Z,99.90
2022-09-14T19:04:22.926Z,99.90
2022-09-14T19:06:51.416Z,99.90
2022-09-14T19:09:19.948Z,99.90
2022-09-14T19:11:48.459Z,99.90
2022-09-14T19:14:20.718Z,99.90
2022-09-14T19:16:50.471Z,99.90
2022-09-14T19:19:19.606Z,99.90
2022-09-14T19:21:48.152Z,99.90
2022-09-14T19:24:19.874Z,99.90
2022-09-14T19:26:50.502Z,99.90
2022-09-14T19:29:40.079Z,99.90
2022-09-14T19:32:10.006Z,99.90
2022-09-14T19:34:38.747Z,99.90
2022-09-14T19:37:07.405Z,99.90
2022-09-14T19:39:35.958Z,99.90
2022-09-14T19:42:04.896Z,99.90
2022-09-14T19:44:34.932Z,99.90
2022-09-14T19:47:03.459Z,99.90
2022-09-14T19:49:32.033Z,99.90
2022-09-14T19:52:01.101Z,99.90
2022-09-14T19:54:32.864Z,99.90
2022-09-14T19:57:02.260Z,99.90
2022-09-14T19:59:31.370Z,99.90
2022-09-14T20:02:01.745Z,99.90
2022-09-14T20:04:30.333Z,99.90
2022-09-14T20:06:58.981Z,99.90
2022-09-14T20:09:27.785Z,99.90
2022-09-14T20:11:56.315Z,99.90
2022-09-14T20:14:26.646Z,99.90
2022-09-14T20:16:56.979Z,99.90
2022-09-14T20:19:28.950Z,99.90
2022-09-14T20:21:58.099Z,99.90
2022-09-14T20:24:28.630Z,99.90
2022-09-14T20:26:59.987Z,99.90
2022-09-14T20:29:30.784Z,99.90
2022-09-14T20:32:00.030Z,99.90
2022-09-14T20:34:30.586Z,99.90
2022-09-14T20:37:00.911Z,99.90
2022-09-14T20:39:29.684Z,99.90
2022-09-14T20:41:58.166Z,99.90
2022-09-14T20:44:27.300Z,99.90
2022-09-14T20:46:55.818Z,99.90
2022-09-14T20:49:25.068Z,99.90
2022-09-14T20:51:56.732Z,99.90
2022-09-14T20:54:25.385Z,99.90
2022-09-14T20:56:53.906Z,99.90
2022-09-14T20:59:23.358Z,99.90
2022-09-14T21:01:53.809Z,99.90
2022-09-14T21:04:23.828Z,99.90
2022-09-14T21:06:55.532Z,99.90
2022-09-14T21:09:25.500Z,99.90
2022-09-14T21:11:54.307Z,99.90
2022-09-14T21:14:23.418Z,99.90
2022-09-14T21:16:55.503Z,99.90
2022-09-14T21:19:28.220Z,99.90
2022-09-14T21:21:58.235Z,99.90
2022-09-14T21:24:26.740Z,99.90
2022-09-14T21:26:56.902Z,99.90
2022-09-14T21:29:25.424Z,99.90
2022-09-14T21:31:54.469Z,99.90
2022-09-14T21:34:23.165Z,99.90
2022-09-14T21:36:52.915Z,99.90
2022-09-14T21:39:24.628Z,99.90
2022-09-14T21:41:58.719Z,99.90
2022-09-14T21:44:31.621Z,99.90
2022-09-14T21:47:01.656Z,99.90
2022-09-14T21:49:30.113Z,99.90
2022-09-14T21:51:58.858Z,99.90
2022-09-14T21:54:28.808Z,99.90
2022-09-14T21:56:57.326Z,99.90
2022-09-14T21:59:25.895Z,99.90
2022-09-14T22:01:54.543Z,99.90
2022-09-14T22:04:25.192Z,99.90
2022-09-14T22:06:53.994Z,99.90
2022-09-14T22:09:25.799Z,99.90
2022-09-14T22:11:56.493Z,99.90
2022-09-14T22:14:26.963Z,99.90
2022-09-14T22:16:56.300Z,99.90
2022-09-14T22:19:26.952Z,99.90
2022-09-14T22:21:56.684Z,99.90
2022-09-14T22:24:27.738Z,99.90
2022-09-14T22:26:57.751Z,99.90
2022-09-14T22:29:26.525Z,99.90
2022-09-14T22:31:56.440Z,99.90
2022-09-14T22:34:25.522Z,99.90
2022-09-14T22:36:53.982Z,99.90
2022-09-14T22:39:22.644Z,99.90
2022-09-14T22:41:51.134Z,99.90
2022-09-14T22:44:21.090Z,99.90
2022-09-14T22:46:50.246Z,99.90
2022-09-14T22:49:18.719Z,99.90
2022-09-14T22:51:47.738Z,99.90
2022-09-14T22:54:16.235Z,99.90
2022-09-14T22:56:44.822Z,99.90
2022-09-14T22:59:13.302Z,99.90
2022-09-14T23:01:43.634Z,99.90
2022-09-14T23:04:14.881Z,99.90
2022-09-14T23:06:45.467Z,99.90
2022-09-14T23:09:16.693Z,99.90
2022-09-14T23:11:45.774Z,99.90
2022-09-14T23:14:14.723Z,99.90
2022-09-14T23:16:46.781Z,99.90
2022-09-14T23:19:17.173Z,99.90
2022-09-14T23:21:46.326Z,99.90
2022-09-14T23:24:15.151Z,99.90
2022-09-14T23:26:43.779Z,99.90
2022-09-14T23:29:17.308Z,99.90
2022-09-14T23:31:47.576Z,99.90
2022-09-14T23:34:16.878Z,99.90
2022-09-14T23:36:45.411Z,99.90
2022-09-14T23:39:13.891Z,99.90
2022-09-14T23:41:42.399Z,99.90
2022-09-14T23:44:13.163Z,99.90
2022-09-14T23:46:41.740Z,99.90
2022-09-14T23:49:12.301Z,99.90
2022-09-14T23:51:41.315Z,99.90
2022-09-14T23:54:09.790Z,99.90
2022-09-14T23:56:38.712Z,99.90
2022-09-14T23:59:07.823Z,99.90
